Time;durP1;ratioP1;P1;durP2;ratioP2;P2;SDS_P1;SDS_P2;PMS_P1;PMS_P2;Temp;Humidity;BMP_temperature;BMP_pressure;BME280_temperature;BME280_humidity;BME280_pressure;Samples;Min_cycle;Max_cycle;Signal;HPM_P1;HPM_P2
2023/07/26 00:01:01;;;;;;;13.68;6.43;;;;;;;28.01;53.52;93582.88;5090118;28;20270;-44
2023/07/26 00:03:28;;;;;;;12.07;6.55;;;;;;;27.97;53.72;93589.75;5071520;28;20199;-44
2023/07/26 00:05:55;;;;;;;10.02;6.22;;;;;;;27.90;53.09;93587.44;5069788;28;20179;-43
2023/07/26 00:08:21;;;;;;;12.93;6.30;;;;;;;27.83;54.74;93575.66;5069602;28;20193;-42
2023/07/26 00:10:49;;;;;;;10.40;6.45;;;;;;;27.87;54.88;93589.81;5069904;28;20199;-43
2023/07/26 00:13:17;;;;;;;20.85;7.15;;;;;;;27.84;54.50;93601.66;5069456;28;20252;-43
2023/07/26 00:15:44;;;;;;;18.40;6.88;;;;;;;27.81;54.75;93585.63;5069736;28;20195;-44
2023/07/26 00:18:11;;;;;;;14.85;6.80;;;;;;;27.77;56.30;93582.00;5068900;28;20209;-43
2023/07/26 00:20:38;;;;;;;11.90;6.75;;;;;;;27.67;56.45;93594.09;5069350;28;20194;-43
2023/07/26 00:23:05;;;;;;;12.88;6.43;;;;;;;27.65;56.17;93592.81;5069672;28;20195;-45
2023/07/26 00:25:31;;;;;;;12.38;6.32;;;;;;;27.65;57.44;93584.94;5069275;28;20843;-43
2023/07/26 00:28:00;;;;;;;18.40;7.85;;;;;;;27.66;59.18;93579.38;5070610;28;20186;-45
2023/07/26 00:30:26;;;;;;;16.15;6.53;;;;;;;27.38;59.43;93551.97;5069011;28;20243;-44
2023/07/26 00:32:53;;;;;;;13.57;6.65;;;;;;;27.38;58.80;93572.19;5069835;28;20208;-43
2023/07/26 00:35:21;;;;;;;22.70;7.28;;;;;;;27.40;58.93;93586.59;5069277;28;20536;-44
2023/07/26 00:37:49;;;;;;;16.70;6.95;;;;;;;27.45;60.22;93570.81;5069444;28;20194;-43
2023/07/26 00:40:16;;;;;;;14.88;8.35;;;;;;;27.37;60.37;93560.09;5069339;28;20202;-44
2023/07/26 00:42:43;;;;;;;20.15;7.63;;;;;;;27.12;60.03;93548.66;5069362;28;20287;-45
2023/07/26 00:45:11;;;;;;;12.30;7.00;;;;;;;27.33;60.25;93572.19;5069184;28;20194;-44
2023/07/26 00:47:39;;;;;;;12.10;6.95;;;;;;;27.32;59.93;93574.03;5069493;28;20218;-44
2023/07/26 00:50:07;;;;;;;19.83;6.90;;;;;;;27.31;60.35;93559.34;5068964;28;20626;-44
2023/07/26 00:52:35;;;;;;;18.42;7.18;;;;;;;27.25;60.30;93561.22;5069531;28;20198;-44
2023/07/26 00:55:02;;;;;;;13.75;6.57;;;;;;;27.31;60.67;93554.09;5069002;28;20698;-44
2023/07/26 00:57:32;;;;;;;12.55;6.30;;;;;;;27.26;60.05;93549.66;5069204;28;20193;-44
2023/07/26 00:59:59;;;;;;;13.77;7.43;;;;;;;27.27;59.44;93545.97;5069053;28;20269;-44
2023/07/26 01:02:27;;;;;;;15.90;6.65;;;;;;;27.24;59.16;93559.63;5069443;28;20221;-43
2023/07/26 01:04:54;;;;;;;12.88;6.70;;;;;;;27.27;59.60;93553.84;5069372;28;20249;-45
2023/07/26 01:07:28;;;;;;;18.05;6.95;;;;;;;27.26;60.41;93549.66;5068873;28;20293;-44
2023/07/26 01:10:05;;;;;;;14.70;7.05;;;;;;;27.20;60.76;93552.56;5069277;28;20191;-45
2023/07/26 01:12:38;;;;;;;13.57;6.72;;;;;;;27.16;61.42;93541.00;5068945;28;20193;-43
2023/07/26 01:15:11;;;;;;;12.80;6.70;;;;;;;27.13;61.26;93552.84;5068800;28;20205;-43
2023/07/26 01:17:39;;;;;;;13.18;6.70;;;;;;;27.08;61.35;93559.94;5068910;28;20255;-43
2023/07/26 01:20:07;;;;;;;10.85;6.40;;;;;;;27.02;61.58;93548.66;5068837;28;20573;-44
2023/07/26 01:22:35;;;;;;;12.30;7.32;;;;;;;27.05;62.30;93547.34;5068953;28;20225;-43
2023/07/26 01:25:02;;;;;;;13.93;6.85;;;;;;;27.01;62.39;93552.34;5068879;28;20658;-45
2023/07/26 01:27:29;;;;;;;13.00;7.05;;;;;;;26.97;62.67;93541.59;5069319;28;20561;-45
2023/07/26 01:29:56;;;;;;;14.00;6.75;;;;;;;26.91;62.70;93539.25;5070486;28;20713;-44
2023/07/26 01:32:27;;;;;;;17.10;6.95;;;;;;;26.94;63.70;93529.03;5072810;28;20252;-45
2023/07/26 01:34:54;;;;;;;13.88;6.18;;;;;;;26.86;63.58;93520.91;5072695;28;20281;-44
2023/07/26 01:37:22;;;;;;;13.40;7.03;;;;;;;26.81;63.10;93534.81;5072145;28;20193;-45
2023/07/26 01:39:52;;;;;;;11.38;6.30;;;;;;;26.83;63.69;93529.31;5072369;28;20190;-44
2023/07/26 01:42:20;;;;;;;12.75;6.70;;;;;;;26.79;63.50;93523.81;5072279;28;20225;-43
2023/07/26 01:44:47;;;;;;;20.55;6.80;;;;;;;26.77;63.26;93518.84;5072323;28;20198;-43
2023/07/26 01:47:14;;;;;;;12.93;6.57;;;;;;;26.82;64.09;93506.75;5072292;28;20271;-44
2023/07/26 01:49:40;;;;;;;11.68;6.03;;;;;;;26.78;63.87;93496.00;5072608;28;20289;-43
2023/07/26 01:52:07;;;;;;;12.45;6.80;;;;;;;26.69;64.03;93511.50;5072178;28;20239;-43
2023/07/26 01:54:34;;;;;;;17.15;6.90;;;;;;;26.69;64.16;93502.84;5072049;28;20187;-43
2023/07/26 01:57:02;;;;;;;14.85;6.85;;;;;;;26.67;64.24;93504.94;5071986;28;20685;-44
2023/07/26 01:59:29;;;;;;;10.63;6.90;;;;;;;26.67;64.37;93510.19;5072303;28;20193;-43
2023/07/26 02:01:56;;;;;;;16.45;6.65;;;;;;;26.66;64.79;93513.88;5072148;28;20279;-44
2023/07/26 02:04:24;;;;;;;17.25;7.05;;;;;;;26.61;64.73;93491.06;5072096;28;20206;-45
2023/07/26 02:06:51;;;;;;;11.77;6.80;;;;;;;26.63;64.32;93494.19;5072461;28;20213;-43
2023/07/26 02:09:18;;;;;;;16.60;6.93;;;;;;;26.65;64.79;93478.22;5071920;28;20187;-44
2023/07/26 02:11:45;;;;;;;16.92;7.13;;;;;;;26.58;64.75;93488.97;5072220;28;20248;-43
2023/07/26 02:14:13;;;;;;;8.02;6.60;;;;;;;26.49;65.40;93477.47;5073508;28;20198;-45
2023/07/26 02:16:40;;;;;;;12.65;7.25;;;;;;;26.56;65.74;93500.81;5073814;28;20277;-43
2023/07/26 02:19:07;;;;;;;10.30;6.60;;;;;;;26.57;65.60;93500.53;5071835;28;20620;-43
2023/07/26 02:21:33;;;;;;;17.15;7.05;;;;;;;26.48;65.68;93487.16;5072012;28;20217;-43
2023/07/26 02:24:00;;;;;;;20.05;7.00;;;;;;;26.34;65.43;93480.88;5071511;28;20236;-43
2023/07/26 02:26:27;;;;;;;13.55;6.82;;;;;;;26.44;65.62;93503.69;5071781;28;20194;-44
2023/07/26 02:28:54;;;;;;;17.70;7.50;;;;;;;26.43;65.79;93502.09;5071671;28;20201;-43
2023/07/26 02:31:22;;;;;;;13.82;6.78;;;;;;;26.38;65.55;93502.91;5071510;28;20234;-44
2023/07/26 02:33:49;;;;;;;12.70;6.90;;;;;;;26.45;64.65;93503.41;5071348;28;20724;-44
2023/07/26 02:36:15;;;;;;;16.40;6.70;;;;;;;26.45;65.74;93510.50;5071513;28;20622;-43
2023/07/26 02:38:42;;;;;;;11.57;7.38;;;;;;;26.40;66.20;93502.63;5071064;28;20642;-44
2023/07/26 02:41:09;;;;;;;14.00;6.60;;;;;;;26.37;65.31;93509.16;5070972;28;20263;-43
2023/07/26 02:43:36;;;;;;;14.95;6.43;;;;;;;26.40;65.68;93502.63;5071410;28;20218;-44
2023/07/26 02:46:02;;;;;;;13.13;6.40;;;;;;;26.37;65.17;93516.25;5071313;28;20566;-43
2023/07/26 02:48:30;;;;;;;15.90;6.70;;;;;;;26.35;64.40;93523.59;5071410;28;20263;-44
2023/07/26 02:50:57;;;;;;;11.90;6.22;;;;;;;26.43;63.89;93525.69;5070924;28;20186;-43
2023/07/26 02:53:24;;;;;;;10.55;6.43;;;;;;;26.41;65.32;93525.94;5070860;28;20186;-43
2023/07/26 02:55:51;;;;;;;12.10;6.20;;;;;;;26.39;65.47;93541.16;5071297;28;20292;-44
2023/07/26 02:58:18;;;;;;;15.27;6.63;;;;;;;26.41;66.16;93531.19;5070979;28;20562;-43
2023/07/26 03:00:44;;;;;;;18.27;7.35;;;;;;;26.41;67.40;93538.28;5071077;28;21029;-43
2023/07/26 03:03:11;;;;;;;18.20;7.40;;;;;;;26.38;67.23;93551.91;5070735;28;20717;-44
2023/07/26 03:05:39;;;;;;;13.93;7.00;;;;;;;26.39;67.02;93538.53;5070544;28;20687;-43
2023/07/26 03:08:06;;;;;;;12.75;7.20;;;;;;;26.32;67.01;93540.63;5070766;28;20198;-43
2023/07/26 03:10:34;;;;;;;15.82;7.43;;;;;;;26.29;67.50;93549.03;5070531;28;20285;-43
2023/07/26 03:13:00;;;;;;;14.77;7.55;;;;;;;26.12;67.53;93510.00;5071109;28;20201;-43
2023/07/26 03:15:27;;;;;;;12.63;6.95;;;;;;;26.24;67.38;93538.53;5070759;28;20201;-43
2023/07/26 03:17:54;;;;;;;13.10;6.82;;;;;;;26.18;67.18;93539.59;5070763;28;20186;-43
2023/07/26 03:20:21;;;;;;;11.95;6.68;;;;;;;26.15;67.79;93534.88;5070890;28;20678;-45
2023/07/26 03:22:49;;;;;;;15.45;7.47;;;;;;;26.16;68.32;93529.38;5070145;28;20221;-43
2023/07/26 03:25:16;;;;;;;17.63;8.07;;;;;;;26.17;68.16;93538.03;5071096;28;20194;-43
2023/07/26 03:27:43;;;;;;;17.55;6.88;;;;;;;26.09;67.95;93528.84;5070483;28;20305;-44
2023/07/26 03:30:11;;;;;;;13.85;7.32;;;;;;;26.11;68.05;93541.69;5070525;28;20320;-44
2023/07/26 03:32:38;;;;;;;14.10;7.30;;;;;;;26.15;67.62;93554.00;5070081;28;20202;-44
2023/07/26 03:35:05;;;;;;;15.43;7.07;;;;;;;26.10;68.24;93543.53;5070311;28;20643;-44
2023/07/26 03:37:32;;;;;;;14.70;7.70;;;;;;;26.10;68.54;93546.16;5070380;28;20612;-44
2023/07/26 03:40:00;;;;;;;11.73;6.53;;;;;;;26.16;68.53;93550.31;5070172;28;20708;-44
2023/07/26 03:42:27;;;;;;;14.40;7.25;;;;;;;26.21;67.78;93554.81;5070047;28;20237;-43
2023/07/26 03:44:54;;;;;;;13.43;7.05;;;;;;;26.15;68.82;93543.53;5070369;28;20199;-44
2023/07/26 03:47:21;;;;;;;14.18;7.28;;;;;;;25.98;68.71;93543.00;5070343;28;20190;-44
2023/07/26 03:49:48;;;;;;;12.80;7.50;;;;;;;26.22;68.54;93546.69;5070482;28;20236;-43
2023/07/26 03:52:15;;;;;;;11.90;6.75;;;;;;;26.25;68.46;93547.97;5069745;28;20194;-47
2023/07/26 03:54:42;;;;;;;13.82;7.47;;;;;;;26.35;68.08;93553.22;5069996;28;20217;-44
2023/07/26 03:57:10;;;;;;;17.58;7.15;;;;;;;26.34;67.89;93561.34;5070037;28;20193;-47
2023/07/26 03:59:37;;;;;;;13.65;6.95;;;;;;;26.34;67.78;93563.97;5069653;28;20198;-43
2023/07/26 04:02:04;;;;;;;12.43;7.47;;;;;;;26.44;67.65;93556.13;5069890;28;20611;-44
2023/07/26 04:04:31;;;;;;;10.20;6.82;;;;;;;26.43;68.04;93572.88;5071573;28;20231;-44
2023/07/26 04:06:58;;;;;;;13.82;7.65;;;;;;;26.50;67.59;93560.31;5069800;28;20202;-44
2023/07/26 04:09:24;;;;;;;16.75;6.78;;;;;;;26.56;67.75;93588.13;5069914;28;20190;-44
2023/07/26 04:11:55;;;;;;;21.13;7.05;;;;;;;26.65;67.40;93591.00;5069880;28;20654;-44
2023/07/26 04:14:24;;;;;;;13.48;6.82;;;;;;;26.69;67.55;93578.94;5069832;28;20198;-44
2023/07/26 04:16:52;;;;;;;13.50;7.38;;;;;;;26.71;67.05;93569.72;5069889;28;20611;-45
2023/07/26 04:19:19;;;;;;;15.80;7.13;;;;;;;26.88;66.83;93600.13;5069365;28;20601;-44
2023/07/26 04:21:46;;;;;;;12.70;7.70;;;;;;;26.95;66.56;93583.06;5069574;28;20200;-46
2023/07/26 04:24:12;;;;;;;8.82;6.95;;;;;;;26.95;66.64;93577.81;5069601;28;20557;-44
2023/07/26 04:26:39;;;;;;;10.98;6.80;;;;;;;27.00;66.42;93574.38;5069406;28;20197;-43
2023/07/26 04:29:06;;;;;;;15.73;7.53;;;;;;;27.15;66.22;93605.84;5069130;28;20532;-43
2023/07/26 04:31:34;;;;;;;14.80;7.28;;;;;;;27.22;66.38;93561.75;5069329;28;20240;-42
2023/07/26 04:34:01;;;;;;;17.25;7.43;;;;;;;27.15;66.39;93544.69;5069874;28;20272;-45
2023/07/26 04:36:28;;;;;;;16.35;7.65;;;;;;;27.17;66.38;93555.72;5069148;28;20681;-44
2023/07/26 04:38:54;;;;;;;9.35;6.88;;;;;;;27.28;65.72;93570.38;5069487;28;20194;-46
2023/07/26 04:41:21;;;;;;;15.32;7.40;;;;;;;27.45;65.86;93565.56;5069329;28;20301;-43
2023/07/26 04:43:48;;;;;;;13.10;7.80;;;;;;;27.54;65.26;93560.53;5069161;28;20221;-42
2023/07/26 04:46:15;;;;;;;13.38;8.20;;;;;;;27.60;64.96;93556.06;5069082;28;20190;-43
2023/07/26 04:48:43;;;;;;;13.57;7.22;;;;;;;27.72;64.57;93548.63;5068230;28;20707;-43
2023/07/26 04:51:12;;;;;;;19.58;8.30;;;;;;;27.81;64.69;93562.81;5069228;28;20190;-44
2023/07/26 04:53:39;;;;;;;12.07;7.60;;;;;;;27.87;64.26;93561.69;5069229;28;20194;-43
2023/07/26 04:56:06;;;;;;;20.05;7.85;;;;;;;27.99;63.74;93558.75;5069211;28;20555;-43
2023/07/26 04:58:32;;;;;;;18.70;8.13;;;;;;;28.10;63.66;93541.03;5069418;28;20195;-43
2023/07/26 05:01:00;;;;;;;11.85;7.65;;;;;;;28.14;62.57;93540.22;5069048;28;20194;-44
2023/07/26 05:03:26;;;;;;;20.90;8.45;;;;;;;28.21;62.00;93564.34;5069997;28;20696;-43
2023/07/26 05:05:55;;;;;;;14.95;7.75;;;;;;;28.36;61.76;93545.06;5073304;28;20202;-44
2023/07/26 05:08:22;;;;;;;14.35;7.63;;;;;;;28.48;62.17;93566.53;5073568;28;20186;-44
2023/07/26 05:10:51;;;;;;;12.93;7.47;;;;;;;28.72;62.16;93555.28;5073037;28;20289;-43
2023/07/26 05:13:18;;;;;;;16.55;7.75;;;;;;;29.03;60.62;93550.50;5073046;28;20197;-43
2023/07/26 05:15:45;;;;;;;14.75;8.05;;;;;;;29.28;58.87;93559.19;5073191;28;20182;-43
2023/07/26 05:18:14;;;;;;;17.63;8.45;;;;;;;29.58;58.30;93550.91;5072501;28;20255;-45
2023/07/26 05:20:41;;;;;;;16.83;7.60;;;;;;;29.90;57.88;93525.69;5072960;28;20200;-45
2023/07/26 05:23:10;;;;;;;22.60;7.80;;;;;;;30.38;56.61;93547.38;5072790;28;20214;-44
2023/07/26 05:25:39;;;;;;;18.55;7.43;;;;;;;30.59;55.34;93533.84;5073075;28;20198;-45
2023/07/26 05:28:06;;;;;;;14.93;7.20;;;;;;;30.77;54.01;93546.19;5072695;28;20195;-42
2023/07/26 05:30:33;;;;;;;18.98;7.78;;;;;;;30.98;54.12;93554.53;5072612;28;20303;-43
2023/07/26 05:33:00;;;;;;;13.18;7.90;;;;;;;31.20;53.36;93536.13;5071366;28;20190;-43
2023/07/26 05:35:27;;;;;;;11.70;6.97;;;;;;;31.44;52.59;93562.38;5072676;28;20186;-42
2023/07/26 05:37:54;;;;;;;13.82;7.43;;;;;;;31.65;52.80;93544.25;5072538;28;20190;-45
2023/07/26 05:40:23;;;;;;;16.27;7.80;;;;;;;31.51;52.03;93538.19;5072456;28;20197;-44
2023/07/26 05:42:51;;;;;;;13.10;7.60;;;;;;;31.67;52.04;93552.66;5072031;28;20230;-45
2023/07/26 05:45:18;;;;;;;14.27;7.00;;;;;;;31.67;51.12;93552.66;5072908;28;20635;-45
2023/07/26 05:47:45;;;;;;;16.58;7.47;;;;;;;31.76;50.03;93544.78;5072312;28;20186;-44
2023/07/26 05:50:14;;;;;;;8.95;6.65;;;;;;;31.71;50.09;93548.34;5072721;28;20179;-44
2023/07/26 05:52:43;;;;;;;12.50;7.50;;;;;;;31.92;49.52;93532.06;5073390;28;20186;-45
2023/07/26 05:55:10;;;;;;;14.18;7.53;;;;;;;32.24;47.82;93528.38;5073460;28;20232;-44
2023/07/26 05:57:38;;;;;;;21.48;7.68;;;;;;;32.48;47.59;93525.44;5072298;28;20688;-45
2023/07/26 06:00:07;;;;;;;15.00;7.13;;;;;;;32.70;47.26;93524.63;5072101;28;20198;-45
2023/07/26 06:02:34;;;;;;;14.98;6.97;;;;;;;32.85;47.44;93532.16;5071971;28;20626;-44
2023/07/26 06:05:01;;;;;;;22.05;6.72;;;;;;;32.84;44.74;93535.13;5072419;28;20194;-45
2023/07/26 06:07:28;;;;;;;16.02;8.13;;;;;;;32.94;43.66;93524.28;5072584;28;20179;-44
2023/07/26 06:09:54;;;;;;;15.60;6.90;;;;;;;32.92;44.31;93539.69;5071949;28;20273;-44
2023/07/26 06:12:21;;;;;;;23.15;7.80;;;;;;;32.91;45.00;93522.22;5071996;28;20202;-44
2023/07/26 06:14:49;;;;;;;17.55;7.93;;;;;;;32.69;44.74;93465.59;5071245;28;20193;-46
2023/07/26 06:17:16;;;;;;;17.50;6.95;;;;;;;33.36;44.37;93536.09;5071929;28;20209;-45
2023/07/26 06:19:43;;;;;;;12.27;7.00;;;;;;;33.71;43.89;93518.38;5071782;28;20616;-45
2023/07/26 06:22:12;;;;;;;21.33;6.75;;;;;;;34.14;38.67;93509.66;5072120;28;20183;-42
2023/07/26 06:24:38;;;;;;;19.30;7.80;;;;;;;34.39;40.31;93520.56;5071753;28;20224;-46
2023/07/26 06:27:06;;;;;;;15.93;7.28;;;;;;;34.55;38.31;93518.22;5072158;28;20634;-45
2023/07/26 06:29:33;;;;;;;27.42;7.28;;;;;;;34.49;38.07;93459.19;5071980;28;20594;-45
2023/07/26 06:32:01;;;;;;;14.07;7.38;;;;;;;35.26;36.67;93499.81;5071908;28;20198;-45
2023/07/26 06:34:28;;;;;;;19.08;8.05;;;;;;;35.42;36.42;93510.66;5071556;28;20256;-45
2023/07/26 06:36:55;;;;;;;12.52;7.15;;;;;;;35.69;35.38;93509.41;5071603;28;20179;-44
2023/07/26 06:39:22;;;;;;;12.48;5.95;;;;;;;36.09;34.42;93503.63;5071706;28;20191;-45
2023/07/26 06:41:48;;;;;;;24.38;7.25;;;;;;;36.42;34.25;93515.06;5071375;28;20194;-45
2023/07/26 06:44:15;;;;;;;17.38;6.63;;;;;;;36.67;33.33;93526.59;5071760;28;20225;-44
2023/07/26 06:46:42;;;;;;;23.98;7.22;;;;;;;36.89;32.61;93533.41;5071030;28;20186;-44
2023/07/26 06:49:11;;;;;;;21.20;6.43;;;;;;;37.14;31.01;93520.91;5071705;28;20182;-45
2023/07/26 06:51:37;;;;;;;20.50;6.78;;;;;;;37.16;30.49;93539.22;5071306;28;20190;-44
2023/07/26 06:54:04;;;;;;;16.42;6.28;;;;;;;37.48;29.26;93542.13;5071157;28;20198;-45
2023/07/26 06:56:31;;;;;;;17.13;6.50;;;;;;;37.51;29.46;93539.56;5071149;28;20221;-43
2023/07/26 06:58:58;;;;;;;18.10;6.32;;;;;;;37.53;28.44;93547.25;5071081;28;20194;-44
2023/07/26 07:01:25;;;;;;;27.63;6.95;;;;;;;37.47;28.55;93549.34;5071248;28;20239;-43
2023/07/26 07:03:51;;;;;;;20.05;6.68;;;;;;;37.66;28.17;93536.22;5071020;28;20655;-43
2023/07/26 07:06:19;;;;;;;18.90;6.68;;;;;;;37.91;28.12;93528.16;5071194;28;20559;-44
2023/07/26 07:08:46;;;;;;;17.08;6.43;;;;;;;38.18;28.07;93515.19;5070815;28;20194;-44
2023/07/26 07:11:13;;;;;;;21.65;6.53;;;;;;;38.42;27.78;93533.78;5070946;28;20199;-43
2023/07/26 07:13:40;;;;;;;21.10;7.50;;;;;;;38.65;27.52;93542.03;5070903;28;20289;-44
2023/07/26 07:16:06;;;;;;;17.70;5.93;;;;;;;38.82;27.36;93540.94;5070879;28;20561;-44
2023/07/26 07:18:33;;;;;;;16.45;6.45;;;;;;;39.03;27.76;93535.31;5070972;28;20193;-45
2023/07/26 07:21:01;;;;;;;16.00;6.18;;;;;;;39.12;27.58;93527.91;5070709;28;20190;-44
2023/07/26 07:23:30;;;;;;;20.35;6.88;;;;;;;38.99;28.14;93542.50;5070525;28;20221;-44
2023/07/26 07:25:57;;;;;;;15.73;6.05;;;;;;;38.97;28.64;93545.50;5070601;28;20194;-45
2023/07/26 07:28:24;;;;;;;21.85;6.65;;;;;;;38.97;28.39;93558.88;5070610;28;20186;-45
2023/07/26 07:30:51;;;;;;;21.98;6.43;;;;;;;38.97;28.75;93552.75;5070328;28;20306;-44
2023/07/26 07:33:17;;;;;;;19.50;7.20;;;;;;;38.72;28.63;93504.00;5070110;28;20198;-44
2023/07/26 07:35:45;;;;;;;22.65;6.03;;;;;;;39.17;28.81;93564.34;5070596;28;20197;-44
2023/07/26 07:38:12;;;;;;;18.15;6.00;;;;;;;39.20;28.35;93550.25;5070004;28;20201;-43
2023/07/26 07:40:41;;;;;;;18.60;7.05;;;;;;;39.13;29.02;93561.56;5070661;28;20197;-45
2023/07/26 07:43:07;;;;;;;17.60;6.68;;;;;;;39.20;28.70;93556.38;5070589;28;20554;-44
2023/07/26 07:45:40;;;;;;;23.48;6.35;;;;;;;39.25;28.48;93547.34;5070136;28;20577;-44
2023/07/26 07:48:07;;;;;;;13.82;5.97;;;;;;;39.21;28.95;93549.13;5070419;28;20213;-45
2023/07/26 07:50:34;;;;;;;17.27;6.32;;;;;;;39.33;29.06;93546.38;5070355;28;20187;-45
2023/07/26 07:53:01;;;;;;;25.83;6.70;;;;;;;39.44;29.01;93546.63;5070061;28;20710;-45
2023/07/26 07:55:31;;;;;;;25.08;6.68;;;;;;;39.49;28.38;93549.03;5069947;28;20194;-45
2023/07/26 07:58:00;;;;;;;22.17;7.40;;;;;;;39.29;28.55;93545.53;5069833;28;20190;-45
2023/07/26 08:00:26;;;;;;;21.80;6.65;;;;;;;39.24;28.74;93543.13;5069975;28;20182;-44
2023/07/26 08:02:53;;;;;;;22.63;6.68;;;;;;;39.29;28.89;93561.56;5069836;28;20179;-44
2023/07/26 08:05:20;;;;;;;19.08;6.45;;;;;;;39.53;29.20;93553.34;5069773;28;20523;-45
2023/07/26 08:07:47;;;;;;;17.50;6.70;;;;;;;39.78;28.40;93559.28;5070023;28;20190;-45
2023/07/26 08:10:14;;;;;;;13.85;6.32;;;;;;;39.94;28.54;93567.25;5069646;28;20202;-45
2023/07/26 08:12:40;;;;;;;21.20;5.78;;;;;;;40.06;27.52;93561.75;5069776;28;20217;-44
2023/07/26 08:15:09;;;;;;;19.13;5.55;;;;;;;40.08;26.96;93550.72;5069815;28;20198;-46
2023/07/26 08:17:36;;;;;;;20.20;6.63;;;;;;;40.08;27.02;93551.50;5070273;28;20213;-44
2023/07/26 08:20:04;;;;;;;25.45;6.68;;;;;;;40.08;26.56;93548.81;5069651;28;20251;-44
2023/07/26 08:22:30;;;;;;;23.30;6.20;;;;;;;40.04;26.62;93545.28;5069682;28;20187;-45
2023/07/26 08:24:57;;;;;;;18.75;5.30;;;;;;;40.00;26.07;93524.91;5069568;28;20698;-45
2023/07/26 08:27:24;;;;;;;17.80;5.40;;;;;;;40.04;23.89;93539.94;5069264;28;20298;-45
2023/07/26 08:29:51;;;;;;;14.85;4.70;;;;;;;39.86;24.67;93550.28;5069361;28;20226;-44
2023/07/26 08:32:19;;;;;;;13.48;5.30;;;;;;;39.96;24.81;93538.22;5069496;28;20205;-44
2023/07/26 08:34:46;;;;;;;21.08;6.38;;;;;;;40.01;24.24;93527.22;5069648;28;20200;-44
2023/07/26 08:37:13;;;;;;;24.88;5.60;;;;;;;39.89;24.45;93538.06;5069412;28;20193;-45
2023/07/26 08:39:40;;;;;;;11.48;5.45;;;;;;;39.93;24.48;93540.81;5069381;28;20186;-45
2023/07/26 08:42:08;;;;;;;18.40;6.53;;;;;;;39.78;24.02;93532.50;5068945;28;20190;-45
2023/07/26 08:44:35;;;;;;;17.98;5.35;;;;;;;39.80;24.98;93548.97;5069781;28;20214;-43
2023/07/26 08:47:05;;;;;;;16.20;5.35;;;;;;;38.81;24.98;93371.75;5069095;28;20209;-45
2023/07/26 08:49:34;;;;;;;18.25;5.47;;;;;;;40.03;25.08;93540.25;5069891;28;20261;-44
2023/07/26 08:52:03;;;;;;;17.85;5.40;;;;;;;40.07;25.24;93536.56;5069114;28;20627;-44
2023/07/26 08:54:31;;;;;;;13.82;5.10;;;;;;;40.09;25.29;93538.88;5069471;28;20286;-46
2023/07/26 08:56:58;;;;;;;14.98;5.05;;;;;;;40.10;24.95;93541.22;5069179;28;20194;-44
2023/07/26 08:59:25;;;;;;;17.08;5.78;;;;;;;40.17;25.16;93540.59;5069423;28;20201;-44
2023/07/26 09:01:54;;;;;;;14.10;5.57;;;;;;;40.24;24.98;93537.25;5069432;28;20198;-45
2023/07/26 09:04:21;;;;;;;15.10;6.00;;;;;;;40.20;25.15;93539.09;5069169;28;20222;-46
2023/07/26 09:06:49;;;;;;;17.13;5.65;;;;;;;40.22;25.59;93539.53;5069236;28;20193;-46
2023/07/26 09:09:17;;;;;;;11.93;5.78;;;;;;;40.21;25.79;93540.66;5068851;28;20195;-45
2023/07/26 09:11:50;;;;;;;24.55;6.05;;;;;;;40.15;24.74;93537.47;5069308;28;20198;-46
2023/07/26 09:14:17;;;;;;;16.60;5.70;;;;;;;40.17;24.90;93548.63;5069090;28;20186;-44
2023/07/26 09:16:43;;;;;;;11.02;5.40;;;;;;;40.22;24.92;93542.22;5069417;28;20194;-45
2023/07/26 09:19:10;;;;;;;18.48;5.47;;;;;;;40.26;25.12;93548.41;5068855;28;20198;-44
2023/07/26 09:21:38;;;;;;;21.88;5.45;;;;;;;40.21;24.50;93543.34;5069293;28;20615;-45
2023/07/26 09:24:07;;;;;;;10.52;4.97;;;;;;;40.07;24.88;93544.59;5068664;28;20222;-44
2023/07/26 09:26:37;;;;;;;14.40;5.32;;;;;;;40.12;24.51;93544.34;5069379;28;20545;-45
2023/07/26 09:29:08;;;;;;;18.20;5.25;;;;;;;40.04;24.81;93552.56;5071002;28;20194;-44
2023/07/26 09:31:35;;;;;;;11.30;5.10;;;;;;;39.81;24.88;93523.78;5069138;28;20285;-44
2023/07/26 09:34:04;;;;;;;20.45;6.63;;;;;;;39.97;25.53;93555.06;5068598;28;20187;-44
2023/07/26 09:36:44;;;;;;;12.40;5.13;;;;;;;39.97;25.57;93555.06;5068903;28;20279;-44
2023/07/26 09:39:13;;;;;;;17.30;5.50;;;;;;;39.63;25.30;93520.69;5068986;28;20190;-45
2023/07/26 09:41:41;;;;;;;12.63;6.47;;;;;;;39.80;25.75;93548.97;5068985;28;20190;-45
2023/07/26 09:44:13;;;;;;;13.48;5.50;;;;;;;39.76;25.85;93556.16;5068606;28;20245;-44
2023/07/26 09:46:48;;;;;;;17.20;5.30;;;;;;;39.60;25.95;93564.22;5069197;28;20194;-45
2023/07/26 09:49:15;;;;;;;20.92;6.35;;;;;;;39.50;25.78;93556.72;5068603;28;20262;-45
2023/07/26 09:51:42;;;;;;;20.33;5.68;;;;;;;39.32;26.16;93556.31;5071905;28;20214;-46
2023/07/26 09:54:10;;;;;;;16.30;5.93;;;;;;;39.32;26.66;93548.28;5072045;28;20198;-45
2023/07/26 09:56:40;;;;;;;18.77;5.63;;;;;;;39.26;26.45;93549.69;5072554;28;20201;-45
2023/07/26 09:59:10;;;;;;;10.10;4.85;;;;;;;39.30;26.88;93558.56;5071817;28;20194;-45
2023/07/26 10:01:40;;;;;;;14.93;5.93;;;;;;;39.38;26.56;93564.84;5072620;28;20210;-45
2023/07/26 10:04:12;;;;;;;14.90;5.05;;;;;;;39.30;26.94;93552.44;5072132;28;20317;-45
2023/07/26 10:06:42;;;;;;;16.88;5.32;;;;;;;39.29;26.89;93548.19;5072424;28;20221;-45
2023/07/26 10:09:13;;;;;;;17.95;6.22;;;;;;;39.21;26.70;93547.28;5072092;28;20634;-46
2023/07/26 10:11:43;;;;;;;13.85;6.20;;;;;;;39.14;26.77;93525.66;5072423;28;20651;-46
2023/07/26 10:14:11;;;;;;;16.98;5.72;;;;;;;39.06;26.94;93524.72;5071731;28;20563;-44
2023/07/26 10:16:39;;;;;;;19.60;5.25;;;;;;;39.04;27.65;93540.34;5071903;28;20194;-44
2023/07/26 10:19:07;;;;;;;17.73;5.95;;;;;;;38.98;27.02;93538.25;5071800;28;20186;-44
2023/07/26 10:21:35;;;;;;;15.10;5.07;;;;;;;39.04;26.75;93529.66;5072502;28;20204;-46
2023/07/26 10:24:03;;;;;;;13.57;4.78;;;;;;;39.03;26.96;93517.38;5071717;28;20221;-45
2023/07/26 10:26:32;;;;;;;17.60;5.43;;;;;;;38.98;26.65;93528.34;5071860;28;20206;-45
2023/07/26 10:29:01;;;;;;;14.30;5.43;;;;;;;38.89;26.97;93515.16;5071646;28;20194;-44
2023/07/26 10:31:28;;;;;;;15.30;5.40;;;;;;;39.13;27.44;93535.59;5071597;28;20233;-46
2023/07/26 10:33:56;;;;;;;22.42;5.32;;;;;;;39.00;27.05;93511.97;5071819;28;20665;-44
2023/07/26 10:36:28;;;;;;;15.05;5.03;;;;;;;39.08;25.70;93522.50;5072012;28;20198;-46
2023/07/26 10:38:56;;;;;;;15.48;4.75;;;;;;;38.89;25.55;93512.47;5072179;28;20259;-46
2023/07/26 10:41:25;;;;;;;12.40;5.82;;;;;;;38.89;25.44;93519.72;5072274;28;20226;-45
2023/07/26 10:44:04;;;;;;;11.95;4.35;;;;;;;38.79;25.85;93520.25;5071759;28;20281;-45
2023/07/26 10:46:45;;;;;;;14.80;5.13;;;;;;;38.68;25.34;93524.50;5071691;28;20201;-45
2023/07/26 10:49:20;;;;;;;16.38;5.20;;;;;;;38.71;25.83;93516.59;5071412;28;20194;-47
2023/07/26 10:51:56;;;;;;;14.25;5.30;;;;;;;38.67;25.40;93515.72;5071869;28;20261;-44
2023/07/26 10:54:35;;;;;;;17.00;5.22;;;;;;;38.57;26.23;93516.25;5069809;28;20186;-46
2023/07/26 10:57:15;;;;;;;19.20;5.80;;;;;;;38.50;26.14;93506.13;5071336;28;20221;-45
2023/07/26 10:59:57;;;;;;;14.65;5.03;;;;;;;38.54;26.21;93514.25;5071096;28;20228;-43
2023/07/26 11:02:59;;;;;;;16.85;5.95;;;;;;;38.37;26.50;93521.44;5070483;28;20654;-44
2023/07/26 11:05:29;;;;;;;13.07;4.72;;;;;;;38.36;26.91;93519.13;5048673;28;20273;-44
2023/07/26 11:07:59;;;;;;;15.88;5.03;;;;;;;38.37;26.25;93516.09;5048788;28;20256;-45
2023/07/26 11:10:29;;;;;;;13.60;5.30;;;;;;;38.19;26.57;93506.81;5048762;28;20187;-45
2023/07/26 11:13:07;;;;;;;14.70;5.45;;;;;;;38.10;26.46;93501.63;5048859;28;20605;-46
2023/07/26 11:15:37;;;;;;;12.65;5.55;;;;;;;37.84;27.52;93510.03;5049557;28;20199;-44
2023/07/26 11:18:04;;;;;;;15.32;5.05;;;;;;;37.84;27.59;93515.38;5048408;28;20648;-45
2023/07/26 11:20:31;;;;;;;20.27;4.93;;;;;;;37.83;27.40;93516.50;5048744;28;20677;-44
2023/07/26 11:22:58;;;;;;;13.70;5.43;;;;;;;37.76;27.36;93504.81;5048296;28;20265;-44
2023/07/26 11:25:25;;;;;;;12.93;5.30;;;;;;;37.71;27.79;93507.75;5048333;28;20768;-44
2023/07/26 11:27:52;;;;;;;17.23;5.10;;;;;;;37.73;28.02;93510.84;5048064;28;20202;-44